Time;durP1;ratioP1;P1;durP2;ratioP2;P2;SDS_P1;SDS_P2;PMS_P1;PMS_P2;Temp;Humidity;BMP_temperature;BMP_pressure;BME280_temperature;BME280_humidity;BME280_pressure;Samples;Min_cycle;Max_cycle;Signal;HPM_P1;HPM_P2
2023/08/16 00:01:36;;;;;;;16.70;9.40;;;;;;;;;;106830;1254;61248;-80
2023/08/16 00:04:02;;;;;;;17.60;10.30;;;;;;;;;;106897;1250;61232;-80
2023/08/16 00:06:29;;;;;;;14.50;10.00;;;;;;;;;;106835;1250;61209;-80
2023/08/16 00:08:58;;;;;;;13.50;9.00;;;;;;;;;;106860;1250;61330;-80
2023/08/16 00:11:25;;;;;;;15.20;9.80;;;;;;;;;;106899;1251;61377;-81
2023/08/16 00:13:51;;;;;;;13.80;9.70;;;;;;;;;;106886;1249;61208;-81
2023/08/16 00:16:18;;;;;;;15.30;10.40;;;;;;;;;;106851;1251;61267;-81
2023/08/16 00:18:44;;;;;;;12.70;9.80;;;;;;;;;;106880;1250;61309;-81
2023/08/16 00:21:11;;;;;;;15.90;9.90;;;;;;;;;;106884;1250;61252;-81
2023/08/16 00:23:37;;;;;;;13.10;10.20;;;;;;;;;;106801;1249;61234;-81
2023/08/16 00:26:03;;;;;;;13.30;10.60;;;;;;;;;;106876;1250;61993;-81
2023/08/16 00:28:30;;;;;;;12.60;10.20;;;;;;;;;;107240;1250;61263;-80
2023/08/16 00:30:56;;;;;;;13.50;9.80;;;;;;;;;;106822;1251;61329;-80
2023/08/16 00:33:23;;;;;;;11.60;9.90;;;;;;;;;;106845;1251;61250;-81
2023/08/16 00:35:50;;;;;;;13.40;9.80;;;;;;;;;;106818;1254;61279;-80
2023/08/16 00:38:17;;;;;;;12.40;10.00;;;;;;;;;;106857;1250;59244;-80
2023/08/16 00:40:47;;;;;;;11.80;9.90;;;;;;;;;;106856;1251;61154;-80
2023/08/16 00:43:13;;;;;;;14.20;9.00;;;;;;;;;;107081;1249;61263;-80
2023/08/16 00:45:40;;;;;;;12.70;10.00;;;;;;;;;;106893;1254;61222;-81
2023/08/16 00:48:06;;;;;;;13.10;9.70;;;;;;;;;;106869;1250;61182;-80
2023/08/16 00:50:32;;;;;;;14.30;10.70;;;;;;;;;;106887;1253;61452;-80
2023/08/16 00:52:59;;;;;;;12.20;9.70;;;;;;;;;;106912;1250;61289;-80
2023/08/16 00:55:25;;;;;;;13.20;10.10;;;;;;;;;;106875;1250;61347;-80
2023/08/16 00:57:52;;;;;;;15.30;10.20;;;;;;;;;;106862;1250;61424;-80
2023/08/16 01:00:19;;;;;;;13.70;10.10;;;;;;;;;;106861;1253;61456;-80
2023/08/16 01:02:45;;;;;;;11.60;9.70;;;;;;;;;;106908;1250;61374;-80
2023/08/16 01:05:11;;;;;;;11.90;9.10;;;;;;;;;;106926;1250;61320;-80
2023/08/16 01:07:38;;;;;;;13.20;9.70;;;;;;;;;;106867;1251;61421;-80
2023/08/16 01:10:04;;;;;;;11.70;9.80;;;;;;;;;;106889;1250;61222;-80
2023/08/16 01:12:37;;;;;;;11.60;9.50;;;;;;;;;;106815;1249;61747;-80
2023/08/16 01:15:09;;;;;;;11.70;9.50;;;;;;;;;;106899;1249;61298;-80
2023/08/16 01:17:36;;;;;;;11.20;9.70;;;;;;;;;;106900;1250;61221;-80
2023/08/16 01:20:04;;;;;;;14.20;9.30;;;;;;;;;;106889;1251;61309;-80
2023/08/16 01:22:42;;;;;;;11.90;10.00;;;;;;;;;;106878;1250;61167;-80
2023/08/16 01:25:21;;;;;;;14.80;10.30;;;;;;;;;;106888;1251;61267;-81
2023/08/16 01:27:47;;;;;;;;;;;;;;;;;;106880;1254;61228;-81
2023/08/16 01:30:14;;;;;;;10.80;9.60;;;;;;;;;;106838;1251;61234;-81
2023/08/16 01:32:40;;;;;;;14.50;9.80;;;;;;;;;;106851;1251;61360;-80
2023/08/16 01:35:07;;;;;;;11.70;10.30;;;;;;;;;;106825;1251;61373;-81
2023/08/16 01:37:33;;;;;;;11.80;10.30;;;;;;;;;;106850;1254;61240;-80
2023/08/16 01:40:00;;;;;;;9.90;8.90;;;;;;;;;;106839;1251;61279;-80
2023/08/16 01:42:28;;;;;;;13.20;10.60;;;;;;;;;;106908;1250;61297;-80
2023/08/16 01:44:56;;;;;;;12.20;10.80;;;;;;;;;;106904;1254;61365;-80
2023/08/16 01:47:22;;;;;;;11.80;10.60;;;;;;;;;;106981;1250;62362;-80
2023/08/16 01:49:49;;;;;;;11.00;9.70;;;;;;;;;;106878;1250;61250;-80
2023/08/16 01:52:16;;;;;;;10.50;9.10;;;;;;;;;;106931;1250;61190;-80
2023/08/16 01:54:42;;;;;;;15.30;9.70;;;;;;;;;;106896;1250;61961;-80
2023/08/16 01:57:08;;;;;;;13.60;10.80;;;;;;;;;;106875;1250;61212;-80
2023/08/16 01:59:35;;;;;;;12.10;10.80;;;;;;;;;;106853;1250;61326;-80
2023/08/16 02:02:01;;;;;;;12.50;10.10;;;;;;;;;;106906;1250;61353;-80
2023/08/16 02:04:27;;;;;;;11.70;10.10;;;;;;;;;;106951;1254;61263;-81
2023/08/16 02:06:54;;;;;;;13.00;8.60;;;;;;;;;;106928;1254;61282;-81
2023/08/16 02:09:20;;;;;;;11.30;10.10;;;;;;;;;;106941;1254;61204;-81
2023/08/16 02:11:47;;;;;;;16.70;10.90;;;;;;;;;;106856;1253;62290;-81
2023/08/16 02:14:13;;;;;;;11.60;10.10;;;;;;;;;;106901;1251;61371;-80
2023/08/16 02:16:40;;;;;;;16.90;11.00;;;;;;;;;;106895;1250;61286;-81
2023/08/16 02:19:06;;;;;;;13.10;10.30;;;;;;;;;;106976;1253;61158;-80
2023/08/16 02:21:32;;;;;;;12.20;9.70;;;;;;;;;;106922;1250;61452;-81
2023/08/16 02:23:59;;;;;;;13.50;10.10;;;;;;;;;;106922;1251;61327;-81
2023/08/16 02:26:25;;;;;;;13.40;10.30;;;;;;;;;;106961;1253;61319;-81
2023/08/16 02:28:52;;;;;;;14.30;9.70;;;;;;;;;;106885;1253;61349;-80
2023/08/16 02:31:18;;;;;;;16.50;11.00;;;;;;;;;;106862;1251;61334;-80
2023/08/16 02:33:45;;;;;;;15.20;10.20;;;;;;;;;;106856;1254;61267;-80
2023/08/16 02:36:11;;;;;;;11.30;9.30;;;;;;;;;;106849;1251;61554;-80
2023/08/16 02:38:37;;;;;;;11.70;9.40;;;;;;;;;;106873;1251;61431;-80
2023/08/16 02:41:04;;;;;;;11.20;10.00;;;;;;;;;;106895;1254;61220;-81
2023/08/16 02:43:31;;;;;;;12.40;9.70;;;;;;;;;;107020;1254;61813;-81
2023/08/16 02:45:57;;;;;;;13.20;9.90;;;;;;;;;;106883;1250;61337;-80
2023/08/16 02:48:24;;;;;;;14.00;10.10;;;;;;;;;;106903;1250;61276;-81
2023/08/16 02:50:50;;;;;;;14.40;10.80;;;;;;;;;;106941;1254;61338;-80
2023/08/16 02:53:16;;;;;;;11.50;9.90;;;;;;;;;;106931;1254;61292;-80
2023/08/16 02:55:43;;;;;;;12.10;10.00;;;;;;;;;;106939;1250;61215;-80
2023/08/16 02:58:09;;;;;;;13.90;10.40;;;;;;;;;;106871;1250;61311;-80
2023/08/16 03:00:36;;;;;;;13.10;11.10;;;;;;;;;;106882;1251;61380;-80
2023/08/16 03:03:02;;;;;;;13.00;9.70;;;;;;;;;;106902;1254;61300;-81
2023/08/16 03:05:29;;;;;;;11.50;9.60;;;;;;;;;;106896;1250;61233;-80
2023/08/16 03:07:55;;;;;;;14.90;10.80;;;;;;;;;;106915;1250;61269;-80
2023/08/16 03:10:22;;;;;;;13.50;10.20;;;;;;;;;;106913;1250;61260;-80
2023/08/16 03:12:48;;;;;;;12.90;10.80;;;;;;;;;;106890;1250;61217;-80
2023/08/16 03:15:14;;;;;;;12.30;10.50;;;;;;;;;;106872;1250;61456;-80
2023/08/16 03:17:41;;;;;;;12.10;9.90;;;;;;;;;;106985;1254;61320;-80
2023/08/16 03:20:09;;;;;;;12.90;10.00;;;;;;;;;;106907;1249;61304;-80
2023/08/16 03:22:35;;;;;;;13.50;9.70;;;;;;;;;;106864;1251;59325;-80
2023/08/16 03:25:02;;;;;;;14.40;10.50;;;;;;;;;;106998;1250;61352;-80
2023/08/16 03:27:28;;;;;;;12.30;11.00;;;;;;;;;;107166;1249;61333;-80
2023/08/16 03:29:55;;;;;;;14.20;10.90;;;;;;;;;;106947;1251;61196;-80
2023/08/16 03:32:21;;;;;;;18.10;11.70;;;;;;;;;;106937;1251;61197;-80
2023/08/16 03:34:48;;;;;;;15.90;10.50;;;;;;;;;;107450;1252;61382;-81
2023/08/16 03:37:14;;;;;;;15.70;11.90;;;;;;;;;;106848;1254;61334;-81
2023/08/16 03:39:40;;;;;;;13.50;10.40;;;;;;;;;;106813;1251;61272;-81
2023/08/16 03:42:07;;;;;;;24.20;12.00;;;;;;;;;;106859;1250;59154;-81
2023/08/16 03:44:33;;;;;;;11.90;10.40;;;;;;;;;;106976;1250;61868;-81
2023/08/16 03:47:00;;;;;;;13.40;11.40;;;;;;;;;;106905;1254;61323;-80
2023/08/16 03:49:26;;;;;;;19.90;10.50;;;;;;;;;;106854;1254;61337;-80
2023/08/16 03:51:53;;;;;;;16.20;10.70;;;;;;;;;;106949;1250;61330;-80
2023/08/16 03:54:19;;;;;;;13.70;10.40;;;;;;;;;;106901;1250;61321;-80
2023/08/16 03:56:45;;;;;;;17.30;11.30;;;;;;;;;;106874;1250;62297;-80
2023/08/16 03:59:12;;;;;;;16.90;11.40;;;;;;;;;;106960;1254;61285;-80
2023/08/16 04:01:38;;;;;;;17.80;9.70;;;;;;;;;;106831;1250;62787;-80
2023/08/16 04:04:05;;;;;;;11.90;10.30;;;;;;;;;;106890;1250;61687;-81
2023/08/16 04:06:31;;;;;;;12.90;10.90;;;;;;;;;;106868;1250;61272;-80
2023/08/16 04:08:57;;;;;;;14.80;11.30;;;;;;;;;;106873;1254;61330;-80
2023/08/16 04:11:24;;;;;;;14.90;11.80;;;;;;;;;;106835;1254;61266;-80
2023/08/16 04:13:50;;;;;;;14.90;11.70;;;;;;;;;;106869;1250;61316;-80
2023/08/16 04:16:17;;;;;;;20.40;12.40;;;;;;;;;;106918;1251;61161;-81
2023/08/16 04:18:43;;;;;;;16.00;11.80;;;;;;;;;;106892;1254;61318;-81
2023/08/16 04:21:10;;;;;;;16.80;12.30;;;;;;;;;;106865;1251;61238;-80
2023/08/16 04:23:36;;;;;;;22.40;13.20;;;;;;;;;;106885;1250;61366;-81
2023/08/16 04:26:03;;;;;;;16.50;12.60;;;;;;;;;;106892;1250;61307;-81
2023/08/16 04:28:29;;;;;;;15.70;11.30;;;;;;;;;;106885;1254;61231;-81
2023/08/16 04:30:57;;;;;;;14.80;11.60;;;;;;;;;;106873;1250;61295;-80
2023/08/16 04:33:23;;;;;;;13.60;11.80;;;;;;;;;;106893;1250;62294;-81
2023/08/16 04:35:49;;;;;;;16.30;11.50;;;;;;;;;;106922;1254;61078;-81
2023/08/16 04:38:16;;;;;;;12.90;11.10;;;;;;;;;;106942;1250;61197;-81
2023/08/16 04:40:42;;;;;;;11.40;10.10;;;;;;;;;;107018;1250;61404;-81
2023/08/16 04:43:09;;;;;;;11.70;10.00;;;;;;;;;;106908;1251;61270;-80
2023/08/16 04:45:35;;;;;;;13.80;10.40;;;;;;;;;;106919;1250;61250;-80
2023/08/16 04:48:01;;;;;;;16.00;10.30;;;;;;;;;;106907;1254;61116;-80
2023/08/16 04:50:28;;;;;;;15.70;10.90;;;;;;;;;;106964;1250;61318;-80
2023/08/16 04:52:54;;;;;;;22.60;9.90;;;;;;;;;;106881;1254;61324;-81
2023/08/16 04:55:21;;;;;;;13.90;9.90;;;;;;;;;;106942;1250;59711;-81
2023/08/16 04:57:47;;;;;;;12.10;9.90;;;;;;;;;;106962;1250;61343;-80
2023/08/16 05:00:14;;;;;;;15.80;10.80;;;;;;;;;;106954;1251;61212;-80
2023/08/16 05:02:40;;;;;;;15.20;11.30;;;;;;;;;;106855;1253;61320;-80
2023/08/16 05:05:07;;;;;;;22.70;11.70;;;;;;;;;;107197;1250;61335;-80
2023/08/16 05:07:34;;;;;;;16.80;12.60;;;;;;;;;;106837;1250;61229;-80
2023/08/16 05:10:00;;;;;;;14.50;12.40;;;;;;;;;;106869;1250;61240;-80
2023/08/16 05:12:27;;;;;;;17.60;12.90;;;;;;;;;;107174;1250;61254;-80
2023/08/16 05:14:53;;;;;;;16.60;12.60;;;;;;;;;;106831;1254;61184;-79
2023/08/16 05:17:19;;;;;;;13.30;11.80;;;;;;;;;;106923;1250;61350;-80
2023/08/16 05:19:46;;;;;;;15.30;11.10;;;;;;;;;;106891;1251;61365;-79
2023/08/16 05:22:13;;;;;;;16.20;12.00;;;;;;;;;;106845;1250;61213;-79
2023/08/16 05:24:39;;;;;;;16.50;12.10;;;;;;;;;;106823;1253;61241;-80
2023/08/16 05:27:11;;;;;;;15.90;11.70;;;;;;;;;;106368;1251;61243;-79
2023/08/16 05:29:39;;;;;;;17.40;12.20;;;;;;;;;;106414;1250;61211;-79
2023/08/16 05:32:05;;;;;;;19.30;11.20;;;;;;;;;;106644;1250;61215;-80
2023/08/16 05:34:32;;;;;;;14.60;12.50;;;;;;;;;;107097;1250;61321;-80
2023/08/16 05:36:58;;;;;;;12.90;11.50;;;;;;;;;;106437;1248;61352;-79
2023/08/16 05:39:25;;;;;;;17.20;10.80;;;;;;;;;;106385;1250;61308;-80
2023/08/16 05:41:52;;;;;;;15.80;11.50;;;;;;;;;;106821;1253;61321;-80
2023/08/16 05:44:19;;;;;;;19.80;11.90;;;;;;;;;;106829;1255;61266;-80
2023/08/16 05:46:45;;;;;;;15.50;10.50;;;;;;;;;;106805;1250;61378;-80
2023/08/16 05:49:12;;;;;;;11.80;10.10;;;;;;;;;;106822;1250;61222;-80
2023/08/16 05:51:38;;;;;;;18.80;10.50;;;;;;;;;;106797;1250;61543;-80
2023/08/16 05:54:05;;;;;;;18.40;10.50;;;;;;;;;;106872;1250;61299;-80
2023/08/16 05:56:31;;;;;;;22.90;17.60;;;;;;;;;;106911;1254;61276;-80
2023/08/16 05:58:58;;;;;;;17.00;12.90;;;;;;;;;;106826;1250;61218;-80
2023/08/16 06:01:24;;;;;;;16.30;11.60;;;;;;;;;;107004;1249;62673;-79
2023/08/16 06:03:50;;;;;;;12.50;11.20;;;;;;;;;;107076;1254;61288;-80
2023/08/16 06:06:17;;;;;;;25.10;11.30;;;;;;;;;;106874;1249;61303;-80
2023/08/16 06:08:44;;;;;;;13.70;10.40;;;;;;;;;;106974;1250;61203;-80
2023/08/16 06:11:10;;;;;;;12.00;10.60;;;;;;;;;;106930;1249;61266;-80
2023/08/16 06:13:36;;;;;;;15.90;11.00;;;;;;;;;;106921;1250;61321;-80
2023/08/16 06:16:03;;;;;;;13.30;9.80;;;;;;;;;;107014;1250;61337;-80
2023/08/16 06:18:29;;;;;;;10.00;8.90;;;;;;;;;;107771;1250;61249;-81
2023/08/16 06:20:56;;;;;;;11.30;9.40;;;;;;;;;;107126;1251;61372;-80
2023/08/16 06:23:22;;;;;;;12.00;9.40;;;;;;;;;;107129;1250;62086;-80
2023/08/16 06:25:49;;;;;;;10.50;9.20;;;;;;;;;;106997;1251;63266;-80
2023/08/16 06:28:15;;;;;;;13.60;10.20;;;;;;;;;;107045;1251;61397;-80
2023/08/16 06:30:41;;;;;;;16.30;9.30;;;;;;;;;;106863;1256;61327;-80
2023/08/16 06:33:08;;;;;;;17.90;9.60;;;;;;;;;;107000;1250;61346;-80
2023/08/16 06:35:34;;;;;;;15.80;9.30;;;;;;;;;;106899;1250;62241;-81
2023/08/16 06:38:02;;;;;;;11.30;10.10;;;;;;;;;;106929;1250;61152;-80
2023/08/16 06:40:28;;;;;;;16.70;9.50;;;;;;;;;;107032;1250;61410;-81
2023/08/16 06:42:55;;;;;;;11.50;9.10;;;;;;;;;;107031;1254;62276;-80
2023/08/16 06:45:21;;;;;;;12.50;9.40;;;;;;;;;;107003;1250;59801;-80
2023/08/16 06:47:47;;;;;;;14.50;9.40;;;;;;;;;;107298;1250;61288;-80
2023/08/16 06:50:14;;;;;;;11.70;9.40;;;;;;;;;;107515;1254;61365;-81
2023/08/16 06:52:42;;;;;;;11.00;9.10;;;;;;;;;;107767;1250;61273;-80
2023/08/16 06:55:08;;;;;;;12.00;9.00;;;;;;;;;;107487;1250;61221;-80
2023/08/16 06:57:35;;;;;;;14.00;9.50;;;;;;;;;;107317;1250;61343;-80
2023/08/16 07:00:03;;;;;;;12.80;9.20;;;;;;;;;;107310;1248;61180;-80
2023/08/16 07:02:30;;;;;;;10.60;8.60;;;;;;;;;;107541;1250;61356;-80
2023/08/16 07:04:56;;;;;;;9.70;8.70;;;;;;;;;;107568;1254;61392;-80
2023/08/16 07:07:23;;;;;;;13.90;8.80;;;;;;;;;;107368;1251;61155;-80
2023/08/16 07:09:50;;;;;;;15.60;8.90;;;;;;;;;;107466;1253;59368;-80
2023/08/16 07:12:16;;;;;;;14.90;8.90;;;;;;;;;;107359;1253;163695;-81
2023/08/16 07:14:43;;;;;;;13.10;9.10;;;;;;;;;;107522;1250;61244;-81
2023/08/16 07:17:09;;;;;;;8.10;7.30;;;;;;;;;;108042;1253;61262;-81
2023/08/16 07:19:35;;;;;;;10.20;8.00;;;;;;;;;;107272;1250;61251;-81
2023/08/16 07:22:02;;;;;;;10.70;7.90;;;;;;;;;;107373;1253;61067;-81
2023/08/16 07:24:28;;;;;;;12.30;7.30;;;;;;;;;;107355;1250;61269;-81
2023/08/16 07:26:56;;;;;;;17.10;8.30;;;;;;;;;;107316;1248;61408;-80
2023/08/16 07:29:23;;;;;;;13.30;9.50;;;;;;;;;;107012;1253;61148;-82
2023/08/16 07:31:51;;;;;;;10.90;8.10;;;;;;;;;;107040;1248;61321;-83
2023/08/16 07:34:17;;;;;;;9.60;8.30;;;;;;;;;;107057;1250;59059;-82
2023/08/16 07:36:44;;;;;;;8.10;7.20;;;;;;;;;;106863;1250;59447;-80
2023/08/16 07:39:11;;;;;;;8.60;6.70;;;;;;;;;;106899;1250;61318;-81
2023/08/16 07:41:37;;;;;;;9.10;7.20;;;;;;;;;;106856;1254;61609;-82
2023/08/16 07:44:04;;;;;;;7.60;6.80;;;;;;;;;;106918;1251;61321;-81
2023/08/16 07:46:30;;;;;;;9.60;7.00;;;;;;;;;;106843;1251;61140;-82
2023/08/16 07:48:58;;;;;;;9.00;7.10;;;;;;;;;;106871;1250;61209;-81
2023/08/16 07:51:25;;;;;;;9.40;6.60;;;;;;;;;;106866;1250;61241;-81
2023/08/16 07:53:51;;;;;;;10.80;6.70;;;;;;;;;;107036;1254;61301;-81
2023/08/16 07:56:17;;;;;;;10.30;6.90;;;;;;;;;;106933;1249;61218;-81
2023/08/16 07:58:44;;;;;;;8.30;6.30;;;;;;;;;;106935;1251;61270;-81
2023/08/16 08:01:10;;;;;;;9.40;6.70;;;;;;;;;;106866;1251;61347;-81
2023/08/16 08:03:37;;;;;;;9.20;7.00;;;;;;;;;;106969;1250;61275;-81
2023/08/16 08:06:03;;;;;;;8.50;6.50;;;;;;;;;;107056;1254;61334;-81
2023/08/16 08:08:30;;;;;;;7.40;6.30;;;;;;;;;;106799;1256;61321;-81
2023/08/16 08:10:56;;;;;;;8.80;6.90;;;;;;;;;;107151;1254;59320;-81
2023/08/16 08:13:22;;;;;;;14.30;6.20;;;;;;;;;;107905;1251;61413;-81
2023/08/16 08:15:49;;;;;;;10.70;6.20;;;;;;;;;;109653;1250;59030;-81
2023/08/16 08:18:15;;;;;;;8.80;6.10;;;;;;;;;;109620;1250;58958;-81
2023/08/16 08:20:41;;;;;;;6.30;5.70;;;;;;;;;;108258;1248;61404;-81
2023/08/16 08:23:08;;;;;;;8.60;5.90;;;;;;;;;;107323;1253;61137;-81
2023/08/16 08:25:34;;;;;;;11.50;6.10;;;;;;;;;;107238;1254;63262;-81
2023/08/16 08:28:00;;;;;;;10.50;5.30;;;;;;;;;;107047;1253;59642;-81
2023/08/16 08:30:27;;;;;;;11.30;6.20;;;;;;;;;;107076;1249;59783;-82
2023/08/16 08:32:57;;;;;;;9.30;6.10;;;;;;;;;;107156;1251;61444;-81
2023/08/16 08:35:24;;;;;;;8.90;6.40;;;;;;;;;;107271;1254;61778;-81
2023/08/16 08:37:51;;;;;;;;;;;;;;;;;;107079;1253;61868;-82
2023/08/16 08:40:20;;;;;;;7.00;6.10;;;;;;;;;;107160;1254;61097;-82
2023/08/16 08:42:46;;;;;;;9.00;5.30;;;;;;;;;;107200;1250;61247;-81
2023/08/16 08:45:13;;;;;;;5.80;5.20;;;;;;;;;;107217;1249;61417;-82
2023/08/16 08:47:40;;;;;;;8.00;5.90;;;;;;;;;;108256;1253;60325;-82
2023/08/16 08:50:06;;;;;;;8.00;5.50;;;;;;;;;;107152;1253;59788;-82
2023/08/16 08:52:33;;;;;;;6.20;5.20;;;;;;;;;;107203;1253;61156;-82
2023/08/16 08:54:59;;;;;;;8.20;5.20;;;;;;;;;;107210;1253;62131;-82
2023/08/16 08:57:28;;;;;;;15.80;5.40;;;;;;;;;;107040;1253;61300;-82
2023/08/16 08:59:55;;;;;;;8.00;5.00;;;;;;;;;;107136;1250;61109;-82
2023/08/16 09:02:22;;;;;;;;;;;;;;;;;;107109;1250;61720;-82
2023/08/16 09:04:50;;;;;;;5.20;4.40;;;;;;;;;;107298;1250;61203;-83
2023/08/16 09:07:17;;;;;;;7.60;5.50;;;;;;;;;;107146;1250;61043;-82
2023/08/16 09:09:44;;;;;;;5.20;3.60;;;;;;;;;;107109;1254;61167;-82
2023/08/16 09:12:14;;;;;;;6.10;3.80;;;;;;;;;;107196;1254;61113;-83
2023/08/16 09:14:40;;;;;;;9.70;8.70;;;;;;;;;;107267;1251;63198;-83
2023/08/16 09:17:07;;;;;;;8.50;4.50;;;;;;;;;;107170;1248;61303;-83
2023/08/16 09:19:33;;;;;;;5.60;4.50;;;;;;;;;;107170;1250;61895;-83
2023/08/16 09:21:59;;;;;;;5.80;4.70;;;;;;;;;;107284;1254;61343;-83
2023/08/16 09:24:26;;;;;;;10.80;4.60;;;;;;;;;;107387;1254;61119;-83
2023/08/16 09:26:52;;;;;;;9.00;3.60;;;;;;;;;;107132;1250;61339;-83
2023/08/16 09:29:19;;;;;;;4.80;3.90;;;;;;;;;;106796;1254;61834;-83
2023/08/16 09:31:46;;;;;;;4.60;3.40;;;;;;;;;;106864;1250;61333;-83
2023/08/16 09:34:13;;;;;;;8.80;3.80;;;;;;;;;;106985;1250;61270;-83
2023/08/16 09:36:45;;;;;;;6.00;3.60;;;;;;;;;;107010;1250;61336;-83
2023/08/16 09:39:11;;;;;;;4.70;3.20;;;;;;;;;;106779;1256;62742;-83
2023/08/16 09:41:59;;;;;;;6.10;3.40;;;;;;;;;;106830;1250;61286;-83
2023/08/16 09:44:27;;;;;;;8.10;4.60;;;;;;;;;;107025;1251;61343;-83
2023/08/16 09:46:53;;;;;;;10.80;8.10;;;;;;;;;;106821;1255;63243;-83
2023/08/16 09:49:21;;;;;;;11.10;8.20;;;;;;;;;;106816;1254;61286;-83
2023/08/16 09:51:47;;;;;;;5.40;3.80;;;;;;;;;;106969;1250;62646;-83
2023/08/16 09:54:14;;;;;;;5.30;3.40;;;;;;;;;;106898;1250;61116;-83
2023/08/16 09:56:41;;;;;;;5.80;4.10;;;;;;;;;;107267;1251;61029;-83
2023/08/16 09:59:08;;;;;;;;;;;;;;;;;;107063;1251;62651;-82
2023/08/16 10:01:35;;;;;;;6.80;4.80;;;;;;;;;;107212;1254;61112;-82
2023/08/16 10:04:02;;;;;;;5.30;4.40;;;;;;;;;;108579;1250;61215;-83
2023/08/16 10:06:30;;;;;;;6.90;4.50;;;;;;;;;;109592;1250;59099;-83
2023/08/16 10:08:56;;;;;;;9.20;4.40;;;;;;;;;;109648;1253;59732;-83
2023/08/16 10:11:23;;;;;;;8.30;5.30;;;;;;;;;;108660;1254;61339;-82
2023/08/16 10:13:49;;;;;;;8.10;5.30;;;;;;;;;;107004;1254;61867;-82
2023/08/16 10:16:16;;;;;;;10.50;4.90;;;;;;;;;;106920;1255;62394;-82
2023/08/16 10:18:43;;;;;;;9.00;4.90;;;;;;;;;;106851;1256;61349;-82
2023/08/16 10:21:16;;;;;;;14.80;5.00;;;;;;;;;;106824;1254;61315;-82
2023/08/16 10:23:43;;;;;;;5.30;4.50;;;;;;;;;;107068;1251;61331;-82
2023/08/16 10:26:17;;;;;;;9.10;4.60;;;;;;;;;;106929;1254;61326;-81
2023/08/16 10:28:49;;;;;;;6.50;4.50;;;;;;;;;;106799;1249;61340;-82
2023/08/16 10:31:16;;;;;;;10.30;4.80;;;;;;;;;;106891;1254;61158;-81
2023/08/16 10:33:44;;;;;;;8.00;5.10;;;;;;;;;;107007;1255;61380;-81
2023/08/16 10:36:11;;;;;;;8.40;4.90;;;;;;;;;;107051;1251;61233;-82
2023/08/16 10:38:38;;;;;;;6.10;5.20;;;;;;;;;;106856;1253;61221;-82
2023/08/16 10:41:12;;;;;;;6.80;4.70;;;;;;;;;;107176;1250;62234;-82
2023/08/16 10:43:44;;;;;;;6.10;4.70;;;;;;;;;;107298;1251;61218;-81
2023/08/16 10:46:11;;;;;;;7.60;5.10;;;;;;;;;;107265;1253;61251;-82
2023/08/16 10:48:38;;;;;;;8.40;5.30;;;;;;;;;;106875;1251;61148;-81
2023/08/16 10:51:06;;;;;;;8.50;4.90;;;;;;;;;;106884;1263;61166;-82
2023/08/16 10:53:33;;;;;;;7.10;5.20;;;;;;;;;;106971;1254;63106;-81
2023/08/16 10:56:04;;;;;;;7.80;5.10;;;;;;;;;;107041;1256;61323;-82
2023/08/16 10:58:30;;;;;;;7.30;4.50;;;;;;;;;;106782;1254;61219;-81
2023/08/16 11:00:58;;;;;;;7.60;4.30;;;;;;;;;;106861;1250;62364;-82
2023/08/16 11:03:31;;;;;;;5.70;5.00;;;;;;;;;;106946;1253;61218;-82
2023/08/16 11:05:59;;;;;;;5.80;4.70;;;;;;;;;;107146;1254;61900;-82
2023/08/16 11:08:30;;;;;;;6.50;4.90;;;;;;;;;;106854;1255;61231;-83
2023/08/16 11:10:57;;;;;;;7.90;5.20;;;;;;;;;;106753;1254;62485;-82
2023/08/16 11:13:23;;;;;;;8.00;4.40;;;;;;;;;;106941;1251;61252;-81
2023/08/16 11:15:50;;;;;;;6.00;5.00;;;;;;;;;;106954;1251;61330;-82
2023/08/16 11:18:30;;;;;;;7.60;4.50;;;;;;;;;;106712;1250;61140;-82
2023/08/16 11:20:59;;;;;;;9.60;5.00;;;;;;;;;;106785;1250;61117;-82
2023/08/16 11:23:31;;;;;;;6.10;4.90;;;;;;;;;;107003;1251;60111;-82
2023/08/16 11:26:02;;;;;;;5.60;4.60;;;;;;;;;;106949;1252;61253;-82
2023/08/16 11:28:28;;;;;;;7.30;4.50;;;;;;;;;;107029;1254;61139;-82
2023/08/16 11:30:55;;;;;;;5.20;4.70;;;;;;;;;;107040;1256;63059;-83
2023/08/16 11:33:22;;;;;;;8.50;4.80;;;;;;;;;;107239;1251;61257;-82
2023/08/16 11:35:48;;;;;;;10.50;5.60;;;;;;;;;;106973;1251;61235;-82
2023/08/16 11:38:15;;;;;;;10.60;5.30;;;;;;;;;;106956;1251;61362;-82
2023/08/16 11:40:45;;;;;;;8.70;5.20;;;;;;;;;;106885;1254;62720;-82
2023/08/16 11:43:13;;;;;;;7.40;5.20;;;;;;;;;;107026;1253;61330;-81
2023/08/16 11:45:40;;;;;;;9.20;5.20;;;;;;;;;;106992;1255;61403;-82
2023/08/16 11:48:06;;;;;;;5.80;4.50;;;;;;;;;;106929;1250;61223;-82
2023/08/16 11:50:33;;;;;;;9.50;5.60;;;;;;;;;;106908;1254;61339;-81
2023/08/16 11:53:00;;;;;;;6.40;5.40;;;;;;;;;;106980;1251;61343;-81
2023/08/16 11:55:29;;;;;;;7.80;5.20;;;;;;;;;;107210;1254;62538;-82
2023/08/16 11:58:03;;;;;;;6.80;4.90;;;;;;;;;;106998;1256;62140;-82
2023/08/16 12:00:29;;;;;;;6.20;5.50;;;;;;;;;;106825;1251;61347;-81
2023/08/16 12:02:56;;;;;;;8.40;5.00;;;;;;;;;;106990;1253;61897;-81
2023/08/16 12:05:23;;;;;;;11.10;5.00;;;;;;;;;;107023;1251;61279;-81
2023/08/16 12:07:53;;;;;;;10.30;5.40;;;;;;;;;;107050;1251;61311;-82
2023/08/16 12:10:28;;;;;;;6.70;5.50;;;;;;;;;;106982;1254;62306;-82
2023/08/16 12:12:55;;;;;;;7.90;5.70;;;;;;;;;;107054;1251;61342;-81
2023/08/16 12:15:22;;;;;;;6.70;5.30;;;;;;;;;;107139;1253;61136;-82
2023/08/16 12:17:49;;;;;;;11.60;6.00;;;;;;;;;;106956;1253;61452;-81
2023/08/16 12:20:16;;;;;;;7.80;5.00;;;;;;;;;;106846;1254;61698;-82
2023/08/16 12:22:43;;;;;;;6.70;5.50;;;;;;;;;;106999;1253;61257;-81
2023/08/16 12:25:10;;;;;;;8.40;4.90;;;;;;;;;;106941;1251;61176;-81
2023/08/16 12:27:36;;;;;;;6.60;5.40;;;;;;;;;;107441;1254;61128;-82
2023/08/16 12:30:04;;;;;;;8.00;5.20;;;;;;;;;;107177;1249;61094;-82
2023/08/16 12:32:31;;;;;;;7.70;4.70;;;;;;;;;;107264;1249;62975;-82
2023/08/16 12:34:57;;;;;;;7.40;5.20;;;;;;;;;;107176;1258;61237;-81
2023/08/16 12:37:24;;;;;;;9.30;5.90;;;;;;;;;;106899;1251;61286;-81
2023/08/16 12:39:50;;;;;;;9.40;5.10;;;;;;;;;;106995;1250;62381;-82
2023/08/16 12:42:17;;;;;;;17.50;6.00;;;;;;;;;;107090;1251;61224;-81
2023/08/16 12:44:43;;;;;;;6.20;5.40;;;;;;;;;;107521;1253;61663;-81
2023/08/16 12:47:10;;;;;;;8.50;5.00;;;;;;;;;;107185;1251;61230;-82
2023/08/16 12:49:36;;;;;;;11.50;6.10;;;;;;;;;;106950;1251;62213;-82
2023/08/16 12:52:02;;;;;;;9.00;6.30;;;;;;;;;;107005;1253;62006;-83
2023/08/16 12:54:29;;;;;;;12.90;5.80;;;;;;;;;;107189;1251;62270;-82
2023/08/16 12:56:55;;;;;;;6.10;4.90;;;;;;;;;;106943;1253;61332;-83
2023/08/16 12:59:22;;;;;;;8.50;5.40;;;;;;;;;;107107;1253;61288;-83
2023/08/16 13:01:49;;;;;;;8.20;5.50;;;;;;;;;;106944;1254;61336;-82
2023/08/16 13:04:16;;;;;;;8.20;5.50;;;;;;;;;;106980;1253;62340;-82
2023/08/16 13:06:43;;;;;;;8.50;5.10;;;;;;;;;;106905;1250;61213;-82
2023/08/16 13:09:09;;;;;;;9.00;5.20;;;;;;;;;;107012;1251;61336;-82
2023/08/16 13:11:36;;;;;;;9.50;5.50;;;;;;;;;;106812;1251;61229;-82
2023/08/16 13:14:05;;;;;;;9.80;5.60;;;;;;;;;;107077;1254;61350;-82
2023/08/16 13:16:31;;;;;;;7.20;5.60;;;;;;;;;;108210;1251;59890;-82
2023/08/16 13:18:58;;;;;;;5.40;4.90;;;;;;;;;;106902;1253;61298;-82
2023/08/16 13:21:24;;;;;;;7.20;5.50;;;;;;;;;;107005;1254;61257;-82
2023/08/16 13:23:50;;;;;;;12.50;5.80;;;;;;;;;;107293;1251;61145;-81
2023/08/16 13:26:17;;;;;;;5.90;4.90;;;;;;;;;;107400;1251;61325;-81
2023/08/16 13:28:43;;;;;;;7.20;4.70;;;;;;;;;;107260;1251;59255;-82
2023/08/16 13:31:10;;;;;;;8.50;5.00;;;;;;;;;;107276;1251;61301;-82
2023/08/16 13:33:36;;;;;;;7.40;5.20;;;;;;;;;;107225;1251;62341;-82
2023/08/16 13:36:03;;;;;;;9.00;4.70;;;;;;;;;;107207;1251;62193;-82
2023/08/16 13:38:30;;;;;;;7.80;5.60;;;;;;;;;;106798;1249;61327;-82
2023/08/16 13:40:56;;;;;;;9.30;5.20;;;;;;;;;;106806;1251;62187;-82
2023/08/16 13:43:22;;;;;;;5.90;5.30;;;;;;;;;;106941;1253;61330;-82
2023/08/16 13:45:49;;;;;;;6.30;5.50;;;;;;;;;;106918;1253;61330;-80
2023/08/16 13:48:15;;;;;;;7.90;6.20;;;;;;;;;;106909;1251;61288;-81
2023/08/16 13:50:42;;;;;;;6.60;5.50;;;;;;;;;;106818;1253;61305;-82
2023/08/16 13:53:08;;;;;;;7.40;5.20;;;;;;;;;;106943;1251;61349;-81
2023/08/16 13:55:35;;;;;;;6.60;5.50;;;;;;;;;;106975;1251;61243;-82
2023/08/16 13:58:01;;;;;;;9.50;5.20;;;;;;;;;;107038;1251;60858;-82
2023/08/16 14:00:28;;;;;;;9.10;5.40;;;;;;;;;;106969;1251;61289;-81
2023/08/16 14:02:55;;;;;;;7.20;5.60;;;;;;;;;;106920;1251;61293;-82
2023/08/16 14:05:22;;;;;;;8.20;5.40;;;;;;;;;;107126;1251;61913;-82
2023/08/16 14:07:48;;;;;;;6.20;4.90;;;;;;;;;;106879;1253;61165;-81
2023/08/16 14:10:14;;;;;;;7.40;6.00;;;;;;;;;;106830;1252;61387;-82
2023/08/16 14:12:41;;;;;;;8.40;5.30;;;;;;;;;;107039;1254;61367;-82
2023/08/16 14:15:08;;;;;;;5.90;5.00;;;;;;;;;;107064;1251;61224;-82
2023/08/16 14:17:34;;;;;;;8.80;6.00;;;;;;;;;;107019;1254;61260;-81